Time;durP1;ratioP1;P1;durP2;ratioP2;P2;SDS_P1;SDS_P2;PMS_P1;PMS_P2;Temp;Humidity;BMP_temperature;BMP_pressure;BME280_temperature;BME280_humidity;BME280_pressure;Samples;Min_cycle;Max_cycle;Signal;HPM_P1;HPM_P2
2021/06/02 00:01:37;;;;;;;2.28;1.60;;;13.50;68.20;;;;;;3586717;40;20048;-80
2021/06/02 00:04:07;;;;;;;4.03;1.60;;;13.50;68.20;;;;;;3586278;40;20040;-79
2021/06/02 00:06:35;;;;;;;2.42;1.45;;;13.50;68.30;;;;;;3586585;40;20067;-80
2021/06/02 00:09:02;;;;;;;2.63;2.05;;;13.50;69.10;;;;;;3586453;40;20080;-79
2021/06/02 00:11:28;;;;;;;3.20;2.03;;;13.50;69.40;;;;;;3568456;40;20118;-79
2021/06/02 00:13:55;;;;;;;4.82;2.10;;;13.50;69.70;;;;;;3577458;40;20309;-79
2021/06/02 00:16:24;;;;;;;4.32;2.15;;;13.40;69.70;;;;;;3586554;40;20133;-79
2021/06/02 00:18:51;;;;;;;4.97;2.88;;;13.50;70.10;;;;;;3586482;40;20126;-79
2021/06/02 00:21:17;;;;;;;5.75;3.25;;;13.40;70.50;;;;;;3586135;40;20125;-79
2021/06/02 00:23:43;;;;;;;4.05;2.00;;;13.40;70.30;;;;;;3577663;40;20048;-79
2021/06/02 00:26:12;;;;;;;4.95;2.58;;;13.40;70.80;;;;;;3576970;40;20286;-79
2021/06/02 00:28:39;;;;;;;5.25;2.67;;;13.40;72.10;;;;;;3577727;40;20044;-80
2021/06/02 00:31:05;;;;;;;4.78;2.22;;;13.40;72.50;;;;;;3586066;40;20125;-80
2021/06/02 00:33:32;;;;;;;5.25;2.88;;;13.40;72.30;;;;;;3586527;40;20052;-79
2021/06/02 00:35:59;;;;;;;4.15;2.58;;;13.40;72.40;;;;;;3586609;40;20055;-79
2021/06/02 00:38:27;;;;;;;6.30;3.55;;;13.50;72.70;;;;;;3577131;40;20138;-79
2021/06/02 00:40:53;;;;;;;3.75;3.03;;;13.50;72.60;;;;;;3586899;40;20191;-80
2021/06/02 00:43:20;;;;;;;4.22;2.75;;;13.50;73.10;;;;;;3586024;40;20651;-79
2021/06/02 00:45:47;;;;;;;5.93;3.25;;;13.50;72.80;;;;;;3586481;40;20395;-79
2021/06/02 00:48:19;;;;;;;2.70;2.47;;;13.50;72.20;;;;;;3577461;40;20033;-79
2021/06/02 00:50:47;;;;;;;4.43;3.20;;;13.50;74.10;;;;;;3586752;40;20122;-79
2021/06/02 00:53:14;;;;;;;5.22;4.18;;;13.50;73.90;;;;;;3586289;40;20047;-80
2021/06/02 00:55:40;;;;;;;7.15;4.78;;;13.50;73.80;;;;;;3577105;40;20047;-79
2021/06/02 00:58:12;;;;;;;6.15;4.35;;;13.50;73.80;;;;;;3579246;40;20040;-79
2021/06/02 01:00:38;;;;;;;7.22;4.30;;;13.50;74.90;;;;;;3577117;40;20061;-79
2021/06/02 01:03:10;;;;;;;4.93;4.00;;;13.50;73.90;;;;;;3577076;40;20049;-79
2021/06/02 01:05:37;;;;;;;5.75;4.07;;;13.50;73.80;;;;;;3586544;40;20043;-79
2021/06/02 01:08:04;;;;;;;5.25;3.92;;;13.50;74.60;;;;;;3586239;40;20071;-79
2021/06/02 01:10:32;;;;;;;6.07;4.55;;;13.50;74.20;;;;;;3576977;40;20125;-79
2021/06/02 01:12:59;;;;;;;4.47;4.07;;;13.50;74.70;;;;;;3586323;40;20043;-79
2021/06/02 01:15:25;;;;;;;6.82;5.45;;;13.60;74.70;;;;;;3576691;40;20040;-80
2021/06/02 01:17:51;;;;;;;6.25;4.32;;;13.60;75.20;;;;;;3576902;40;20146;-79
2021/06/02 01:20:19;;;;;;;7.97;5.80;;;13.50;75.80;;;;;;3586191;40;20410;-80
2021/06/02 01:22:47;;;;;;;6.32;4.85;;;13.60;76.90;;;;;;3586275;40;20040;-79
2021/06/02 01:25:18;;;;;;;6.50;5.07;;;13.60;75.90;;;;;;3586292;40;20037;-79
2021/06/02 01:27:48;;;;;;;8.38;5.07;;;13.60;77.20;;;;;;3577085;40;20130;-80
2021/06/02 01:30:19;;;;;;;6.32;4.30;;;13.60;78.20;;;;;;3578954;40;20346;-80
2021/06/02 01:32:54;;;;;;;5.93;5.32;;;13.60;77.30;;;;;;3586796;40;20255;-80
2021/06/02 01:35:50;;;;;;;8.70;4.68;;;13.60;77.30;;;;;;3586502;40;20046;-80
2021/06/02 01:38:24;;;;;;;9.15;5.13;;;13.70;82.00;;;;;;3586403;40;20036;-79
2021/06/02 01:41:18;;;;;;;8.63;4.88;;;13.70;78.50;;;;;;3586217;40;20047;-79
2021/06/02 01:44:06;;;;;;;10.00;6.82;;;13.60;80.70;;;;;;3586241;40;20141;-79
2021/06/02 01:47:06;;;;;;;9.77;6.10;;;13.70;82.10;;;;;;3585837;40;20274;-80
2021/06/02 01:50:11;;;;;;;9.73;6.10;;;13.70;81.30;;;;;;3578858;40;20059;-79
2021/06/02 01:52:54;;;;;;;8.80;6.20;;;13.70;84.60;;;;;;3586160;40;20152;-79
2021/06/02 01:55:48;;;;;;;8.80;6.63;;;13.70;79.60;;;;;;3585986;40;20056;-79
2021/06/02 01:58:32;;;;;;;9.45;6.10;;;13.70;82.00;;;;;;3582057;40;20069;-79
2021/06/02 02:01:29;;;;;;;9.90;7.05;;;13.70;79.30;;;;;;3586021;40;20052;-79
2021/06/02 02:04:07;;;;;;;8.82;6.57;;;13.70;80.30;;;;;;3586182;40;20234;-79
2021/06/02 02:07:04;;;;;;;11.25;6.68;;;13.70;79.20;;;;;;3585568;40;20235;-80
2021/06/02 02:09:51;;;;;;;10.85;7.32;;;13.70;82.60;;;;;;3586184;40;20051;-79
2021/06/02 02:12:37;;;;;;;12.32;8.82;;;13.60;78.50;;;;;;3585585;40;20338;-78
2021/06/02 02:15:28;;;;;;;9.98;7.85;;;13.60;78.90;;;;;;3576523;40;20048;-80
2021/06/02 02:18:16;;;;;;;10.85;7.68;;;13.60;82.40;;;;;;3576636;40;20083;-79
2021/06/02 02:20:49;;;;;;;10.48;7.35;;;13.60;81.50;;;;;;3585891;40;20040;-79
2021/06/02 02:23:27;;;;;;;15.32;8.60;;;13.60;79.70;;;;;;3585546;40;20041;-80
2021/06/02 02:26:12;;;;;;;10.93;7.63;;;13.60;79.60;;;;;;3576687;40;20130;-79
2021/06/02 02:28:41;;;;;;;10.80;8.45;;;13.60;83.80;;;;;;3576795;40;20281;-80
2021/06/02 02:31:31;;;;;;;12.55;8.15;;;13.60;80.90;;;;;;3585321;40;20050;-79
2021/06/02 02:34:57;;;;;;;10.98;8.95;;;13.60;81.90;;;;;;3585529;40;20040;-80
2021/06/02 02:37:54;;;;;;;15.55;8.55;;;13.60;83.10;;;;;;3577866;40;20083;-80
2021/06/02 02:40:44;;;;;;;13.68;8.93;;;13.60;83.20;;;;;;3578140;40;20102;-80
2021/06/02 02:43:16;;;;;;;11.15;8.77;;;13.70;80.00;;;;;;3577414;40;20414;-80
2021/06/02 02:45:49;;;;;;;17.20;9.88;;;13.70;81.50;;;;;;3586808;40;20417;-79
2021/06/02 02:48:29;;;;;;;13.10;9.35;;;13.70;80.20;;;;;;3586524;40;20227;-79
2021/06/02 02:51:04;;;;;;;10.15;7.95;;;13.70;81.80;;;;;;3579947;40;20216;-80
2021/06/02 02:53:52;;;;;;;12.30;8.35;;;13.70;80.30;;;;;;3586790;40;20051;-79
2021/06/02 02:56:26;;;;;;;13.85;8.90;;;13.70;84.30;;;;;;3586690;40;20551;-80
2021/06/02 02:59:12;;;;;;;13.40;9.48;;;13.70;81.10;;;;;;3592713;39;20041;-79
2021/06/02 03:01:44;;;;;;;11.18;8.40;;;13.70;84.80;;;;;;3587142;40;20714;-80
2021/06/02 03:04:24;;;;;;;11.63;8.85;;;13.70;81.70;;;;;;3586873;40;20129;-79
2021/06/02 03:06:59;;;;;;;15.23;8.75;;;13.70;86.10;;;;;;3577411;40;20040;-79
2021/06/02 03:10:00;;;;;;;14.73;9.60;;;13.70;82.90;;;;;;3576875;40;20429;-79
2021/06/02 03:13:17;;;;;;;13.73;8.55;;;13.70;81.80;;;;;;3583091;40;20039;-79
2021/06/02 03:15:47;;;;;;;8.95;7.70;;;13.70;85.10;;;;;;3555729;40;20303;-79
2021/06/02 03:18:39;;;;;;;11.82;8.75;;;13.70;80.70;;;;;;3587071;40;20278;-80
2021/06/02 03:21:24;;;;;;;12.30;9.13;;;13.70;81.50;;;;;;3586927;40;20070;-80
2021/06/02 03:23:55;;;;;;;9.07;6.95;;;13.70;81.00;;;;;;3587548;40;20102;-80
2021/06/02 03:26:28;;;;;;;14.18;10.15;;;13.70;81.00;;;;;;3577837;40;20052;-80
2021/06/02 03:29:01;;;;;;;9.60;7.45;;;13.60;79.80;;;;;;3586908;40;20044;-80
2021/06/02 03:31:59;;;;;;;11.32;8.48;;;13.60;80.10;;;;;;3587000;40;20040;-80
2021/06/02 03:34:41;;;;;;;12.80;8.73;;;13.60;85.80;;;;;;3563972;40;20216;-81
2021/06/02 03:37:38;;;;;;;11.73;7.18;;;13.60;81.60;;;;;;3586779;40;20040;-80
2021/06/02 03:40:22;;;;;;;11.05;6.97;;;13.50;82.80;;;;;;3587023;40;20410;-81
2021/06/02 03:43:16;;;;;;;10.35;8.93;;;13.50;80.50;;;;;;3587445;40;20048;-81
2021/06/02 03:46:12;;;;;;;12.20;8.25;;;13.50;82.30;;;;;;3576293;40;20064;-81
2021/06/02 03:48:57;;;;;;;12.27;9.57;;;13.50;80.20;;;;;;3570891;40;20040;-80
2021/06/02 03:51:37;;;;;;;12.30;8.45;;;13.50;81.10;;;;;;3586816;40;20032;-81
2021/06/02 03:54:35;;;;;;;13.07;8.98;;;13.40;84.50;;;;;;3586762;40;20522;-81
2021/06/02 03:57:38;;;;;;;12.50;8.93;;;13.40;84.50;;;;;;3586210;40;20145;-81
2021/06/02 04:00:46;;;;;;;14.70;8.63;;;13.40;84.70;;;;;;3544669;40;20317;-81
2021/06/02 04:03:21;;;;;;;14.23;9.50;;;13.30;84.20;;;;;;3586442;40;20032;-81
2021/06/02 04:06:17;;;;;;;11.40;9.00;;;13.30;81.00;;;;;;3577553;40;20036;-80
2021/06/02 04:08:49;;;;;;;12.93;8.57;;;13.30;81.50;;;;;;3576626;40;20056;-81
2021/06/02 04:11:22;;;;;;;11.45;7.80;;;13.30;82.30;;;;;;3586207;40;20048;-81
2021/06/02 04:14:02;;;;;;;13.80;8.55;;;13.30;83.80;;;;;;3586489;40;20067;-80
2021/06/02 04:16:30;;;;;;;13.80;9.82;;;13.30;85.10;;;;;;3587019;40;20040;-80
2021/06/02 04:19:01;;;;;;;12.18;7.80;;;13.40;82.10;;;;;;3586256;40;20314;-80
2021/06/02 04:21:27;;;;;;;12.07;8.60;;;13.40;83.80;;;;;;3586275;40;20051;-80
2021/06/02 04:23:55;;;;;;;11.57;8.10;;;13.40;82.50;;;;;;3586698;40;20093;-80
2021/06/02 04:26:21;;;;;;;15.50;8.70;;;13.40;81.80;;;;;;3586506;40;20032;-80
2021/06/02 04:28:49;;;;;;;14.65;9.45;;;13.40;82.30;;;;;;3586484;40;20040;-79
2021/06/02 04:31:15;;;;;;;9.02;7.10;;;13.50;83.90;;;;;;3577708;40;20247;-80
2021/06/02 04:33:43;;;;;;;12.30;7.50;;;13.50;82.30;;;;;;3577323;40;20342;-80
2021/06/02 04:36:12;;;;;;;11.27;7.60;;;13.50;83.10;;;;;;3586392;40;20269;-80
2021/06/02 04:38:39;;;;;;;14.45;7.85;;;13.60;82.50;;;;;;3577279;40;20542;-80
2021/06/02 04:41:07;;;;;;;9.70;7.43;;;13.70;83.40;;;;;;3584602;40;20413;-81
2021/06/02 04:43:35;;;;;;;11.13;8.70;;;13.70;83.30;;;;;;3576140;40;20079;-79
2021/06/02 04:46:04;;;;;;;10.73;7.70;;;13.90;83.70;;;;;;3576703;40;20036;-81
2021/06/02 04:48:32;;;;;;;11.68;8.05;;;14.00;83.40;;;;;;3579146;40;20151;-79
2021/06/02 04:51:58;;;;;;;12.50;8.73;;;14.00;83.60;;;;;;3579281;40;20338;-79
2021/06/02 04:55:02;;;;;;;9.95;8.65;;;14.10;84.90;;;;;;3571876;40;20047;-79
2021/06/02 04:57:43;;;;;;;11.52;8.60;;;14.20;85.40;;;;;;3585624;40;20349;-80
2021/06/02 05:00:20;;;;;;;11.15;8.48;;;14.40;85.10;;;;;;3583779;40;20048;-81
2021/06/02 05:03:07;;;;;;;12.70;8.43;;;14.40;84.80;;;;;;3584806;40;20064;-79
2021/06/02 05:05:48;;;;;;;12.63;9.05;;;14.60;84.60;;;;;;3575587;40;20069;-81
2021/06/02 05:08:39;;;;;;;11.75;7.93;;;15.00;84.40;;;;;;3585852;40;20411;-81
2021/06/02 05:11:20;;;;;;;15.43;9.00;;;15.60;83.60;;;;;;3576389;40;20129;-81
2021/06/02 05:13:59;;;;;;;15.00;10.05;;;15.90;82.30;;;;;;3577123;40;20048;-81
2021/06/02 05:16:59;;;;;;;12.70;9.48;;;16.00;82.20;;;;;;3571047;40;20179;-81
2021/06/02 05:20:27;;;;;;;12.57;8.65;;;15.90;81.20;;;;;;3585837;40;20059;-81
2021/06/02 05:23:30;;;;;;;13.52;8.60;;;16.40;82.50;;;;;;3583111;40;20040;-80
2021/06/02 05:26:10;;;;;;;12.70;9.52;;;17.20;79.20;;;;;;3585825;40;20044;-80
2021/06/02 05:29:13;;;;;;;13.65;8.40;;;17.70;77.20;;;;;;3582930;40;20036;-80
2021/06/02 05:32:16;;;;;;;14.23;10.45;;;18.00;75.50;;;;;;3585759;40;20036;-80
2021/06/02 05:35:04;;;;;;;11.57;9.10;;;18.20;75.60;;;;;;3584199;40;20051;-81
2021/06/02 05:37:55;;;;;;;13.73;10.52;;;18.40;77.70;;;;;;3585657;40;20084;-80
2021/06/02 05:40:40;;;;;;;10.52;9.30;;;18.60;73.80;;;;;;3585895;40;20227;-81
2021/06/02 05:43:27;;;;;;;10.30;9.10;;;18.70;76.70;;;;;;3585397;40;20331;-81
2021/06/02 05:46:02;;;;;;;13.48;10.02;;;18.50;75.60;;;;;;3585784;40;20067;-80
2021/06/02 05:49:06;;;;;;;10.52;9.30;;;18.00;77.90;;;;;;3590805;40;20044;-82
2021/06/02 05:51:37;;;;;;;11.87;8.83;;;17.50;75.30;;;;;;3579036;40;20040;-81
2021/06/02 05:54:37;;;;;;;12.98;9.68;;;17.10;79.80;;;;;;3576460;40;20036;-80
2021/06/02 05:57:41;;;;;;;13.00;9.48;;;16.90;79.90;;;;;;3584973;40;20048;-81
2021/06/02 06:00:18;;;;;;;12.55;8.35;;;17.00;79.10;;;;;;3584122;40;20047;-81
2021/06/02 06:03:27;;;;;;;15.75;9.20;;;17.10;82.10;;;;;;3576399;40;20045;-81
2021/06/02 06:06:24;;;;;;;10.27;8.57;;;17.20;81.10;;;;;;3584232;40;20055;-81
2021/06/02 06:09:18;;;;;;;11.80;9.20;;;17.10;79.80;;;;;;3582860;40;20057;-82
2021/06/02 06:12:06;;;;;;;17.63;10.30;;;17.30;76.70;;;;;;3563161;40;20036;-81
2021/06/02 06:15:29;;;;;;;10.23;8.52;;;17.40;78.20;;;;;;3584212;40;20048;-81
2021/06/02 06:18:04;;;;;;;12.88;8.60;;;17.40;76.90;;;;;;3541140;40;20034;-81
2021/06/02 06:20:49;;;;;;;9.25;7.95;;;17.60;81.10;;;;;;3587078;40;20081;-81
2021/06/02 06:23:15;;;;;;;10.45;7.97;;;17.70;81.50;;;;;;3577694;40;20040;-82
2021/06/02 06:26:18;;;;;;;12.13;8.02;;;18.20;80.90;;;;;;3587292;40;20121;-81
2021/06/02 06:29:12;;;;;;;10.98;8.35;;;18.70;76.00;;;;;;3585444;40;20126;-82
2021/06/02 06:31:43;;;;;;;11.07;7.90;;;19.20;76.80;;;;;;3587175;40;20063;-82
2021/06/02 06:34:19;;;;;;;10.15;6.50;;;19.20;74.00;;;;;;3586842;40;20071;-81
2021/06/02 06:36:48;;;;;;;7.95;6.88;;;19.30;74.60;;;;;;3584580;40;20051;-82
2021/06/02 06:39:39;;;;;;;9.35;6.82;;;19.50;76.60;;;;;;3586808;40;20104;-82
2021/06/02 06:42:07;;;;;;;13.90;7.65;;;19.50;70.60;;;;;;3587188;40;20048;-81
2021/06/02 06:44:35;;;;;;;9.63;7.90;;;19.40;75.50;;;;;;3587166;40;20251;-81
2021/06/02 06:47:02;;;;;;;9.25;6.70;;;19.40;76.80;;;;;;3586961;40;20335;-82
2021/06/02 06:49:31;;;;;;;9.52;6.63;;;19.80;76.30;;;;;;3579467;40;20075;-82
2021/06/02 06:51:59;;;;;;;10.82;6.90;;;20.40;74.80;;;;;;3586693;40;20133;-82
2021/06/02 06:54:26;;;;;;;9.82;6.45;;;21.00;73.40;;;;;;3577408;40;20047;-82
2021/06/02 06:56:54;;;;;;;9.15;5.90;;;21.60;72.50;;;;;;3578130;40;20295;-82
2021/06/02 06:59:20;;;;;;;9.63;7.05;;;22.10;71.10;;;;;;3578576;40;20224;-83
2021/06/02 07:01:47;;;;;;;8.55;6.97;;;22.30;69.20;;;;;;3586604;40;20051;-82
2021/06/02 07:04:14;;;;;;;8.60;6.30;;;22.40;68.60;;;;;;3587211;40;20076;-82
2021/06/02 07:06:43;;;;;;;6.93;6.22;;;22.50;68.00;;;;;;3587203;40;20043;-83
2021/06/02 07:09:09;;;;;;;10.65;6.93;;;22.50;67.10;;;;;;3586735;40;20152;-82
2021/06/02 07:11:42;;;;;;;9.98;6.72;;;22.50;68.40;;;;;;3569304;40;20426;-82
2021/06/02 07:14:15;;;;;;;7.00;5.72;;;22.70;67.60;;;;;;3578127;40;20044;-82
2021/06/02 07:16:41;;;;;;;7.93;6.00;;;22.80;67.10;;;;;;3577647;40;20037;-82
2021/06/02 07:19:10;;;;;;;8.40;5.38;;;23.00;66.70;;;;;;3577531;40;20044;-82
2021/06/02 07:21:42;;;;;;;5.57;5.00;;;22.90;65.40;;;;;;3586580;40;20045;-83
2021/06/02 07:24:09;;;;;;;6.00;5.00;;;22.70;63.50;;;;;;3586902;40;20036;-83
2021/06/02 07:26:36;;;;;;;6.07;4.65;;;22.60;66.30;;;;;;3587123;40;20321;-81
2021/06/02 07:29:02;;;;;;;9.85;6.03;;;22.50;63.60;;;;;;3577354;40;20044;-81
2021/06/02 07:31:27;;;;;;;4.72;4.18;;;22.50;65.20;;;;;;3586682;40;20086;-82
2021/06/02 07:33:53;;;;;;;5.70;4.20;;;22.40;65.50;;;;;;3569316;40;20036;-82
2021/06/02 07:36:19;;;;;;;5.82;4.25;;;22.40;62.90;;;;;;3585916;40;20047;-82
2021/06/02 07:38:45;;;;;;;5.47;4.22;;;22.30;64.70;;;;;;3577626;40;20040;-82
2021/06/02 07:41:11;;;;;;;6.13;3.92;;;22.10;64.90;;;;;;3569002;40;20056;-81
2021/06/02 07:43:37;;;;;;;5.20;4.47;;;22.20;65.00;;;;;;3577475;40;20234;-81
2021/06/02 07:46:03;;;;;;;6.97;4.32;;;22.20;64.40;;;;;;3577141;40;20319;-82
2021/06/02 07:48:30;;;;;;;4.43;4.00;;;22.20;64.30;;;;;;3586616;40;20056;-81
2021/06/02 07:50:58;;;;;;;9.07;4.65;;;22.20;64.10;;;;;;3586338;40;20045;-81
2021/06/02 07:53:24;;;;;;;4.65;4.18;;;22.20;63.80;;;;;;3586572;40;20052;-81
2021/06/02 07:55:50;;;;;;;5.30;4.18;;;22.20;64.00;;;;;;3578480;40;20103;-81
2021/06/02 07:58:16;;;;;;;8.27;4.55;;;22.40;63.60;;;;;;3586214;40;20436;-82
2021/06/02 08:00:42;;;;;;;3.58;3.28;;;22.80;62.70;;;;;;3569269;40;20278;-82
2021/06/02 08:03:07;;;;;;;6.70;3.03;;;23.10;63.00;;;;;;3577161;40;20606;-81
2021/06/02 08:05:34;;;;;;;7.82;3.47;;;23.00;62.20;;;;;;3586743;40;20043;-81
2021/06/02 08:07:59;;;;;;;4.40;3.60;;;22.80;61.70;;;;;;3586317;40;20044;-82
2021/06/02 08:10:26;;;;;;;4.03;2.88;;;22.70;61.30;;;;;;3586594;40;20046;-82
2021/06/02 08:12:51;;;;;;;4.20;2.25;;;22.70;61.10;;;;;;3577255;40;20051;-81
2021/06/02 08:15:18;;;;;;;4.90;3.30;;;22.70;60.90;;;;;;3586049;40;20433;-81
2021/06/02 08:17:44;;;;;;;2.95;2.35;;;22.80;60.50;;;;;;3586363;40;20043;-81
2021/06/02 08:20:11;;;;;;;4.53;3.47;;;23.10;60.30;;;;;;3586095;40;20040;-81
2021/06/02 08:22:38;;;;;;;5.95;4.00;;;23.30;59.60;;;;;;3577051;40;20129;-82
2021/06/02 08:25:07;;;;;;;3.88;2.58;;;23.40;58.30;;;;;;3576926;40;20041;-80
2021/06/02 08:27:33;;;;;;;4.05;2.97;;;23.20;58.70;;;;;;3586502;40;20042;-81
2021/06/02 08:29:59;;;;;;;4.15;3.47;;;23.50;59.10;;;;;;3586113;40;20052;-80
2021/06/02 08:32:25;;;;;;;4.03;2.80;;;23.70;58.50;;;;;;3586029;40;20602;-81
2021/06/02 08:34:52;;;;;;;3.28;2.97;;;23.90;58.40;;;;;;3576896;40;20046;-81
2021/06/02 08:37:18;;;;;;;5.57;3.47;;;24.20;58.30;;;;;;3585884;40;20052;-81
2021/06/02 08:39:44;;;;;;;3.60;3.30;;;24.30;57.20;;;;;;3586481;40;20158;-81
2021/06/02 08:42:11;;;;;;;4.80;3.10;;;24.40;57.30;;;;;;3585986;40;20040;-81
2021/06/02 08:44:38;;;;;;;6.05;3.80;;;24.40;56.30;;;;;;3586200;40;20036;-81
2021/06/02 08:47:05;;;;;;;3.47;3.05;;;24.40;56.60;;;;;;3585934;40;20047;-82
2021/06/02 08:49:31;;;;;;;3.85;2.58;;;24.50;55.80;;;;;;3586269;40;20044;-81
2021/06/02 08:52:01;;;;;;;3.67;2.90;;;24.40;55.70;;;;;;3585933;40;20278;-82
2021/06/02 08:54:27;;;;;;;3.65;2.75;;;24.30;55.20;;;;;;3586167;40;20047;-81
2021/06/02 08:56:54;;;;;;;2.83;2.20;;;24.20;56.10;;;;;;3577191;40;20657;-81
2021/06/02 08:59:21;;;;;;;4.32;2.80;;;24.20;55.80;;;;;;3585956;40;20068;-82
2021/06/02 09:01:48;;;;;;;4.05;2.28;;;24.10;55.80;;;;;;3566616;40;20071;-80
2021/06/02 09:04:14;;;;;;;3.78;2.00;;;24.10;55.90;;;;;;3573615;40;20360;-81
2021/06/02 09:06:51;;;;;;;3.38;2.20;;;24.20;55.30;;;;;;3586064;40;20048;-80
2021/06/02 09:09:17;;;;;;;4.38;2.13;;;24.10;54.80;;;;;;3576290;40;20044;-80
2021/06/02 09:11:52;;;;;;;3.90;2.10;;;24.00;55.00;;;;;;3586139;40;20105;-80
2021/06/02 09:14:20;;;;;;;6.10;3.08;;;23.80;54.20;;;;;;3585873;40;20040;-82
2021/06/02 09:16:51;;;;;;;3.85;1.88;;;23.80;54.20;;;;;;3576630;40;20052;-81
2021/06/02 09:19:46;;;;;;;5.63;1.80;;;23.80;55.10;;;;;;3576630;40;20318;-81
2021/06/02 09:22:17;;;;;;;1.88;1.63;;;23.70;53.10;;;;;;3585343;40;20033;-81
2021/06/02 09:24:57;;;;;;;3.92;2.45;;;23.70;53.90;;;;;;3577098;40;20045;-81
2021/06/02 09:27:50;;;;;;;2.75;2.25;;;23.60;53.20;;;;;;3586061;40;20047;-82
2021/06/02 09:30:22;;;;;;;2.25;1.80;;;23.50;52.80;;;;;;3585767;40;20063;-82
2021/06/02 09:32:56;;;;;;;4.90;2.15;;;23.70;54.80;;;;;;3585978;40;20047;-81
2021/06/02 09:35:34;;;;;;;3.55;2.10;;;23.80;52.20;;;;;;3576645;40;20352;-82
2021/06/02 09:38:00;;;;;;;3.75;1.90;;;23.90;54.70;;;;;;3575766;40;20040;-80
2021/06/02 09:40:29;;;;;;;3.95;1.98;;;23.90;55.10;;;;;;3585732;40;20048;-81
2021/06/02 09:42:56;;;;;;;4.53;2.05;;;24.00;54.10;;;;;;3585517;40;20150;-82
2021/06/02 09:45:22;;;;;;;2.92;2.00;;;24.00;54.40;;;;;;3575391;40;20066;-81
2021/06/02 09:47:51;;;;;;;2.95;2.05;;;23.90;55.20;;;;;;3585760;40;20036;-81
2021/06/02 09:50:35;;;;;;;2.58;2.08;;;23.90;53.20;;;;;;3585474;40;20044;-82
2021/06/02 09:53:03;;;;;;;4.43;1.85;;;23.90;54.20;;;;;;3585639;40;20736;-83
2021/06/02 09:55:40;;;;;;;4.15;2.45;;;23.90;54.10;;;;;;3576294;40;20040;-83
2021/06/02 09:58:06;;;;;;;2.60;2.38;;;23.90;53.10;;;;;;3576467;40;20041;-81
2021/06/02 10:00:35;;;;;;;2.47;2.00;;;24.00;54.20;;;;;;3576461;40;20055;-81
2021/06/02 10:03:10;;;;;;;3.78;2.33;;;24.00;54.40;;;;;;3585320;40;20137;-80
2021/06/02 10:05:42;;;;;;;3.65;2.15;;;24.00;53.20;;;;;;3585231;40;20068;-82
2021/06/02 10:08:12;;;;;;;2.53;1.70;;;24.00;53.10;;;;;;3576118;40;20053;-82
2021/06/02 10:10:40;;;;;;;3.20;1.65;;;23.90;53.50;;;;;;3585620;40;20036;-83
2021/06/02 10:13:10;;;;;;;3.33;2.22;;;23.90;52.90;;;;;;3576215;40;20053;-82
2021/06/02 10:15:46;;;;;;;4.75;1.50;;;23.80;51.60;;;;;;3576231;40;20067;-82
2021/06/02 10:18:34;;;;;;;2.90;1.67;;;23.70;51.00;;;;;;3581522;40;20032;-82
2021/06/02 10:21:07;;;;;;;2.83;1.52;;;23.80;51.20;;;;;;3585258;40;20305;-81
2021/06/02 10:23:36;;;;;;;3.13;1.45;;;24.10;52.80;;;;;;3585869;40;20101;-83
2021/06/02 10:26:04;;;;;;;4.97;1.42;;;24.40;52.90;;;;;;3585125;40;20056;-82
2021/06/02 10:28:32;;;;;;;4.95;1.73;;;24.40;51.80;;;;;;3576419;40;20130;-82
2021/06/02 10:31:04;;;;;;;5.63;1.40;;;24.10;51.90;;;;;;3567279;40;20032;-82
2021/06/02 10:33:33;;;;;;;1.95;1.20;;;24.10;51.90;;;;;;3580607;40;20043;-81
2021/06/02 10:36:02;;;;;;;1.63;1.15;;;24.30;52.30;;;;;;3583477;40;20048;-82
2021/06/02 10:38:31;;;;;;;2.22;1.00;;;24.40;51.30;;;;;;3576044;40;20029;-82
2021/06/02 10:40:59;;;;;;;2.78;1.38;;;24.50;51.00;;;;;;3585106;40;20335;-83
2021/06/02 10:43:33;;;;;;;2.17;1.50;;;24.60;50.90;;;;;;3576297;40;20164;-81
2021/06/02 10:46:14;;;;;;;3.95;1.27;;;24.60;49.30;;;;;;3585138;40;20032;-83
2021/06/02 10:48:53;;;;;;;1.63;1.02;;;24.60;49.40;;;;;;3576099;40;20048;-82
2021/06/02 10:51:39;;;;;;;2.92;1.17;;;24.70;50.40;;;;;;3574062;40;20080;-81
2021/06/02 10:54:11;;;;;;;2.28;0.93;;;24.90;49.80;;;;;;3584586;40;20052;-81
2021/06/02 10:56:39;;;;;;;5.38;1.35;;;25.00;49.80;;;;;;3575766;40;20032;-81
2021/06/02 10:59:28;;;;;;;3.00;1.48;;;25.00;49.70;;;;;;3586202;40;20033;-81
2021/06/02 11:02:03;;;;;;;5.32;1.20;;;24.90;46.20;;;;;;3584756;40;20044;-80
2021/06/02 11:04:30;;;;;;;3.42;1.58;;;24.80;46.70;;;;;;3585718;40;20043;-81
2021/06/02 11:07:13;;;;;;;2.90;1.50;;;24.70;49.40;;;;;;3577052;40;20040;-81
2021/06/02 11:09:54;;;;;;;5.40;1.05;;;24.80;47.10;;;;;;3586421;40;20052;-81
2021/06/02 11:12:22;;;;;;;2.17;1.05;;;25.00;47.30;;;;;;3576341;40;20044;-81
2021/06/02 11:14:48;;;;;;;2.55;1.73;;;25.20;49.40;;;;;;3585781;40;20427;-81
2021/06/02 11:17:16;;;;;;;2.38;1.05;;;25.20;47.40;;;;;;3585768;40;20065;-81
2021/06/02 11:20:08;;;;;;;6.00;1.30;;;25.00;48.40;;;;;;3577466;40;20047;-82
2021/06/02 11:22:35;;;;;;;1.77;1.35;;;25.00;46.50;;;;;;3585111;40;20048;-81
2021/06/02 11:25:00;;;;;;;3.65;1.80;;;25.10;47.90;;;;;;3585499;40;20059;-81
2021/06/02 11:27:29;;;;;;;3.10;1.70;;;25.10;48.40;;;;;;3585169;39;20032;-81
2021/06/02 11:29:58;;;;;;;3.05;1.38;;;25.10;48.70;;;;;;3569883;40;20262;-82
2021/06/02 11:32:28;;;;;;;3.63;1.25;;;25.00;47.90;;;;;;3586051;40;20239;-82
2021/06/02 11:35:05;;;;;;;1.90;1.17;;;24.80;48.50;;;;;;3585946;40;20055;-83
2021/06/02 11:37:35;;;;;;;3.55;1.33;;;24.70;46.70;;;;;;3585810;40;20316;-82
2021/06/02 11:40:05;;;;;;;2.80;1.40;;;24.50;49.10;;;;;;3585870;40;20430;-82
2021/06/02 11:42:41;;;;;;;2.30;1.05;;;24.60;49.30;;;;;;3576397;40;20037;-81
2021/06/02 11:45:10;;;;;;;2.53;1.30;;;24.80;49.00;;;;;;3585202;40;20044;-81
2021/06/02 11:47:37;;;;;;;2.97;1.50;;;25.00;49.90;;;;;;3585083;40;20041;-81
2021/06/02 11:50:09;;;;;;;2.83;1.50;;;25.20;49.60;;;;;;3575014;40;20565;-82
2021/06/02 11:52:35;;;;;;;5.97;2.50;;;25.20;48.80;;;;;;3586658;40;20063;-81
2021/06/02 11:55:11;;;;;;;2.50;0.88;;;25.20;50.00;;;;;;3567191;40;20335;-81
2021/06/02 11:57:45;;;;;;;1.95;1.33;;;25.30;49.20;;;;;;3586723;40;20409;-81
2021/06/02 12:00:16;;;;;;;3.15;1.20;;;25.50;48.00;;;;;;3585151;40;20076;-81
2021/06/02 12:02:44;;;;;;;2.25;1.17;;;25.40;49.10;;;;;;3586405;40;20346;-81
2021/06/02 12:05:22;;;;;;;1.88;1.33;;;25.50;48.60;;;;;;3586347;40;20032;-81
2021/06/02 12:07:54;;;;;;;3.42;1.33;;;25.40;45.90;;;;;;3585838;40;20056;-81
2021/06/02 12:10:22;;;;;;;2.00;1.75;;;25.20;48.50;;;;;;3568848;40;20365;-81
2021/06/02 12:12:48;;;;;;;3.85;1.85;;;25.20;48.50;;;;;;3577224;40;20048;-82
2021/06/02 12:15:16;;;;;;;5.57;1.40;;;25.00;47.60;;;;;;3576196;40;20032;-81
2021/06/02 12:17:43;;;;;;;2.35;1.90;;;25.00;49.00;;;;;;3586485;40;20041;-83
2021/06/02 12:20:14;;;;;;;4.38;1.73;;;25.00;48.60;;;;;;3586186;40;20412;-81
2021/06/02 12:22:41;;;;;;;4.90;1.40;;;24.90;48.10;;;;;;3576781;40;20048;-81
2021/06/02 12:25:13;;;;;;;2.17;1.02;;;25.10;47.90;;;;;;3576837;40;20039;-82
2021/06/02 12:27:42;;;;;;;3.45;1.40;;;25.20;48.10;;;;;;3576900;40;20045;-81
2021/06/02 12:30:31;;;;;;;2.17;1.17;;;25.20;47.40;;;;;;3586389;40;20040;-81
2021/06/02 12:33:15;;;;;;;4.30;1.90;;;25.20;47.20;;;;;;3584245;40;20046;-81
2021/06/02 12:35:45;;;;;;;2.25;1.85;;;25.30;47.50;;;;;;3586247;40;20036;-82
2021/06/02 12:38:28;;;;;;;2.35;1.33;;;25.30;47.10;;;;;;3585970;40;20137;-82
2021/06/02 12:40:56;;;;;;;6.68;1.83;;;25.20;44.70;;;;;;3586338;40;20039;-82
2021/06/02 12:43:25;;;;;;;4.25;1.45;;;25.00;47.20;;;;;;3586289;40;20047;-81
2021/06/02 12:45:52;;;;;;;3.85;1.50;;;25.00;47.70;;;;;;3585952;40;20084;-82
2021/06/02 12:48:31;;;;;;;3.38;1.50;;;25.10;47.50;;;;;;3568095;40;20041;-81
2021/06/02 12:50:57;;;;;;;5.45;2.78;;;25.40;46.50;;;;;;3585969;40;20335;-82
2021/06/02 12:53:34;;;;;;;3.85;1.50;;;25.50;47.00;;;;;;3586204;40;20047;-81
2021/06/02 12:56:00;;;;;;;2.38;1.85;;;25.40;46.80;;;;;;3585846;40;20041;-82
2021/06/02 12:58:30;;;;;;;3.47;1.75;;;25.30;47.50;;;;;;3571163;40;20246;-81
2021/06/02 13:01:01;;;;;;;4.15;1.70;;;25.30;47.50;;;;;;3567808;40;20121;-81
2021/06/02 13:03:28;;;;;;;3.05;1.63;;;25.40;47.40;;;;;;3574951;40;20351;-81
2021/06/02 13:05:57;;;;;;;5.30;2.35;;;25.40;47.60;;;;;;3576067;40;20052;-81
2021/06/02 13:08:23;;;;;;;2.72;1.98;;;25.50;47.20;;;;;;3573885;40;20048;-81
2021/06/02 13:10:49;;;;;;;2.25;1.48;;;25.50;47.60;;;;;;3576142;40;20279;-80
2021/06/02 13:13:16;;;;;;;2.38;1.80;;;25.40;47.60;;;;;;3575937;40;20036;-80
2021/06/02 13:15:54;;;;;;;5.70;1.88;;;25.20;46.50;;;;;;3576077;40;20080;-81
2021/06/02 13:18:28;;;;;;;2.50;1.65;;;24.90;46.90;;;;;;3575808;40;20087;-80
2021/06/02 13:20:55;;;;;;;4.88;1.48;;;24.60;48.60;;;;;;3574911;40;20040;-80
2021/06/02 13:23:22;;;;;;;3.17;1.80;;;24.60;48.30;;;;;;3576079;40;20060;-81
2021/06/02 13:26:14;;;;;;;2.03;1.65;;;24.60;48.10;;;;;;3576048;40;20040;-80